createdAt,value
2018-07-30T00:00:31.432Z,100734.81
2018-07-30T00:03:00.524Z,100742.17
2018-07-30T00:05:29.658Z,100746.90
2018-07-30T00:07:58.731Z,100742.27
2018-07-30T00:10:27.816Z,100742.36
2018-07-30T00:12:56.887Z,100734.30
2018-07-30T00:15:26.000Z,100738.22
2018-07-30T00:17:55.064Z,100737.95
2018-07-30T00:20:24.176Z,100738.72
2018-07-30T00:22:53.253Z,100740.65
2018-07-30T00:25:22.351Z,100739.75
2018-07-30T00:27:51.420Z,100735.66
2018-07-30T00:30:21.508Z,100743.67
2018-07-30T00:32:50.644Z,100742.27
2018-07-30T00:35:19.740Z,100741.27
2018-07-30T00:37:48.832Z,100735.22
2018-07-30T00:40:17.896Z,100741.06
2018-07-30T00:42:48.384Z,100738.18
2018-07-30T00:45:18.000Z,100738.31
2018-07-30T00:47:47.087Z,100740.91
2018-07-30T00:50:16.160Z,100740.38
2018-07-30T00:52:45.256Z,100744.20
2018-07-30T00:55:14.340Z,100745.11
2018-07-30T00:57:43.427Z,100745.87
2018-07-30T01:00:12.492Z,100741.92
2018-07-30T01:02:41.591Z,100744.47
2018-07-30T01:05:10.660Z,100748.09
2018-07-30T01:07:39.810Z,100747.42
2018-07-30T01:10:08.845Z,100752.98
2018-07-30T01:12:37.942Z,100752.81
2018-07-30T01:15:07.003Z,100760.02
2018-07-30T01:17:36.075Z,100753.67
2018-07-30T01:20:05.161Z,100757.44
2018-07-30T01:22:34.255Z,100754.95
2018-07-30T01:25:03.323Z,100754.33
2018-07-30T01:27:32.419Z,100758.53
2018-07-30T01:30:01.512Z,100761.63
2018-07-30T01:32:30.627Z,100761.23
2018-07-30T01:34:59.720Z,100768.81
2018-07-30T01:37:28.831Z,100769.67
2018-07-30T01:39:57.923Z,100766.20
2018-07-30T01:42:27.023Z,100767.59
2018-07-30T01:44:56.104Z,100771.44
2018-07-30T01:47:25.196Z,100770.53
2018-07-30T01:49:54.276Z,100774.33
2018-07-30T01:52:23.392Z,100775.46
2018-07-30T01:54:52.464Z,100772.42
2018-07-30T01:57:21.559Z,100776.48
2018-07-30T01:59:50.636Z,100780.72
2018-07-30T02:02:19.736Z,100780.36
2018-07-30T02:04:49.115Z,100784.79
2018-07-30T02:07:18.296Z,100786.63
2018-07-30T02:09:47.372Z,100787.77
2018-07-30T02:12:16.472Z,100788.98
2018-07-30T02:14:45.548Z,100796.64
2018-07-30T02:17:14.644Z,100796.85
2018-07-30T02:19:43.753Z,100790.98
2018-07-30T02:22:12.848Z,100791.06
2018-07-30T02:24:41.916Z,100790.59
2018-07-30T02:27:11.009Z,100790.78
2018-07-30T02:29:40.077Z,100792.58
2018-07-30T02:32:09.172Z,100795.94
2018-07-30T02:34:38.252Z,100801.60
2018-07-30T02:37:07.345Z,100794.09
2018-07-30T02:39:36.433Z,100802.05
2018-07-30T02:42:05.536Z,100790.53
2018-07-30T02:44:34.590Z,100799.91
2018-07-30T02:47:03.696Z,100804.59
2018-07-30T02:49:32.796Z,100804.15
2018-07-30T02:52:01.908Z,100811.23
2018-07-30T02:54:30.998Z,100818.77
2018-07-30T02:57:00.120Z,100822.71
2018-07-30T02:59:29.204Z,100817.54
2018-07-30T03:01:58.280Z,100821.81
2018-07-30T03:04:27.369Z,100830.78
2018-07-30T03:06:56.464Z,100829.97
2018-07-30T03:09:25.608Z,100831.09
2018-07-30T03:11:54.693Z,100837.53
2018-07-30T03:14:23.803Z,100834.00
2018-07-30T03:16:52.899Z,100833.95
2018-07-30T03:19:22.000Z,100833.47
2018-07-30T03:21:51.060Z,100843.80
2018-07-30T03:24:20.160Z,100836.70
2018-07-30T03:26:50.260Z,100843.20
2018-07-30T03:29:19.367Z,100847.27
2018-07-30T03:31:48.640Z,100846.97
2018-07-30T03:34:17.808Z,100844.74
2018-07-30T03:36:47.704Z,100848.72
2018-07-30T03:39:17.747Z,100847.53
2018-07-30T03:41:47.743Z,100854.30
2018-07-30T03:44:17.743Z,100850.13
2018-07-30T03:46:47.765Z,100848.80
2018-07-30T03:49:17.724Z,100856.09
2018-07-30T03:51:46.796Z,100854.78
2018-07-30T03:54:15.906Z,100844.77
2018-07-30T03:56:44.982Z,100850.39
2018-07-30T03:59:14.088Z,100850.87
2018-07-30T04:01:43.165Z,100852.70
2018-07-30T04:04:12.254Z,100851.66
2018-07-30T04:06:41.344Z,100858.64
2018-07-30T04:09:10.431Z,100858.11
2018-07-30T04:11:39.535Z,100867.95
2018-07-30T04:14:09.003Z,100866.72
2018-07-30T04:16:42.501Z,100863.02
2018-07-30T04:19:11.615Z,100867.19
2018-07-30T04:21:40.688Z,100865.48
2018-07-30T04:24:09.784Z,100867.12
2018-07-30T04:26:38.875Z,100873.94
2018-07-30T04:29:07.981Z,100877.05
2018-07-30T04:31:37.047Z,100874.34
2018-07-30T04:34:06.316Z,100869.84
2018-07-30T04:36:35.604Z,100870.70
2018-07-30T04:39:09.185Z,100874.14
2018-07-30T04:41:38.328Z,100866.95
2018-07-30T04:44:07.536Z,100869.38
2018-07-30T04:46:37.764Z,100869.62
2018-07-30T04:49:06.980Z,100868.95
2018-07-30T04:51:36.847Z,100875.55
2018-07-30T04:54:06.487Z,100870.91
2018-07-30T04:56:35.564Z,100872.88
2018-07-30T04:59:04.680Z,100870.91
2018-07-30T05:01:33.743Z,100873.73
2018-07-30T05:04:02.837Z,100874.98
2018-07-30T05:06:31.948Z,100871.66
2018-07-30T05:09:01.063Z,100877.13
2018-07-30T05:11:30.152Z,100888.28
2018-07-30T05:13:59.258Z,100883.51
2018-07-30T05:16:28.355Z,100878.66
2018-07-30T05:18:57.452Z,100885.08
2018-07-30T05:21:26.631Z,100884.89
2018-07-30T05:23:55.739Z,100887.87
2018-07-30T05:26:24.837Z,100891.89
2018-07-30T05:28:54.214Z,100894.66
2018-07-30T05:31:23.371Z,100905.66
2018-07-30T05:33:52.464Z,100896.93
2018-07-30T05:36:21.586Z,100907.28
2018-07-30T05:38:50.683Z,100907.34
2018-07-30T05:41:19.789Z,100902.06
2018-07-30T05:43:49.273Z,100905.19
2018-07-30T05:46:18.361Z,100905.00
2018-07-30T05:48:47.436Z,100908.33
2018-07-30T05:51:16.589Z,100906.45
2018-07-30T05:53:45.680Z,100916.26
2018-07-30T05:56:14.776Z,100914.42
2018-07-30T05:58:43.880Z,100907.03
2018-07-30T06:01:12.973Z,100906.23
2018-07-30T06:03:42.060Z,100916.27
2018-07-30T06:06:11.203Z,100921.02
2018-07-30T06:08:40.312Z,100923.75
2018-07-30T06:11:09.417Z,100927.95
2018-07-30T06:13:38.707Z,100931.34
2018-07-30T06:16:07.829Z,100930.36
2018-07-30T06:18:36.912Z,100936.15
2018-07-30T06:21:06.043Z,100932.00
2018-07-30T06:23:35.168Z,100929.50
2018-07-30T06:26:04.859Z,100937.94
2018-07-30T06:28:33.924Z,100939.07
2018-07-30T06:31:03.032Z,100943.53
2018-07-30T06:33:32.197Z,100943.53
2018-07-30T06:36:01.394Z,100943.64
2018-07-30T06:38:30.819Z,100943.57
2018-07-30T06:40:59.908Z,100944.78
2018-07-30T06:43:29.058Z,100945.28
2018-07-30T06:45:58.136Z,100947.48
2018-07-30T06:48:27.240Z,100949.48
2018-07-30T06:50:56.332Z,100940.72
2018-07-30T06:53:25.439Z,100945.41
2018-07-30T06:55:54.544Z,100952.23
2018-07-30T06:58:23.648Z,100948.75
2018-07-30T07:00:52.869Z,100944.97
2018-07-30T07:03:22.039Z,100951.23
2018-07-30T07:05:51.099Z,100948.87
2018-07-30T07:08:20.236Z,100953.03
2018-07-30T07:10:49.329Z,100957.23
2018-07-30T07:13:18.427Z,100959.61
2018-07-30T07:15:47.594Z,100965.02
2018-07-30T07:18:16.729Z,100967.80
2018-07-30T07:20:45.890Z,100974.45
2018-07-30T07:23:14.939Z,100974.14
2018-07-30T07:25:44.109Z,100973.89
2018-07-30T07:28:13.252Z,100979.81
2018-07-30T07:30:42.342Z,100972.04
2018-07-30T07:33:11.444Z,100981.95
2018-07-30T07:35:40.545Z,100975.40
2018-07-30T07:38:09.656Z,100983.34
2018-07-30T07:40:38.772Z,100986.23
2018-07-30T07:43:07.894Z,100992.33
2018-07-30T07:45:37.016Z,100989.23
2018-07-30T07:48:06.101Z,100989.37
2018-07-30T07:50:35.311Z,100996.41
2018-07-30T07:53:04.333Z,100991.53
2018-07-30T07:55:33.433Z,100993.23
2018-07-30T07:58:02.517Z,100991.09
2018-07-30T08:00:31.608Z,100997.66
2018-07-30T08:03:00.719Z,100995.18
2018-07-30T08:05:29.812Z,100998.17
2018-07-30T08:07:58.900Z,100993.53
2018-07-30T08:10:28.003Z,100991.01
2018-07-30T08:12:57.077Z,100989.67
2018-07-30T08:15:26.172Z,100985.58
2018-07-30T08:17:55.261Z,100988.00
2018-07-30T08:20:24.357Z,100992.40
2018-07-30T08:22:53.471Z,100988.10
2018-07-30T08:25:22.575Z,100985.33
2018-07-30T08:27:51.656Z,100983.63
2018-07-30T08:30:20.772Z,100990.66
2018-07-30T08:32:49.868Z,100983.59
2018-07-30T08:35:18.967Z,100983.63
2018-07-30T08:37:48.076Z,100988.53
2018-07-30T08:40:17.192Z,100991.96
2018-07-30T08:42:46.285Z,100997.16
2018-07-30T08:45:15.384Z,100999.47
2018-07-30T08:47:44.500Z,100998.16
2018-07-30T08:50:13.601Z,101000.25
2018-07-30T08:52:42.663Z,101004.48
2018-07-30T08:55:11.753Z,101002.64
2018-07-30T08:57:40.850Z,100999.67
2018-07-30T09:00:10.332Z,101002.17
2018-07-30T09:02:39.973Z,101002.73
2018-07-30T09:05:09.594Z,100999.04
2018-07-30T09:07:38.718Z,100999.86
2018-07-30T09:10:08.376Z,100995.64
2018-07-30T09:12:38.047Z,100993.91
2018-07-30T09:15:12.666Z,100994.50
2018-07-30T09:17:42.138Z,100991.47
2018-07-30T09:20:18.611Z,100998.79
2018-07-30T09:22:47.805Z,100995.59
2018-07-30T09:25:16.894Z,100998.16
2018-07-30T09:27:46.048Z,100993.97
2018-07-30T09:30:20.345Z,100990.70
2018-07-30T09:32:49.652Z,101003.20
2018-07-30T09:35:18.704Z,100996.63
2018-07-30T09:37:47.847Z,100998.11
2018-07-30T09:40:16.982Z,100999.55
2018-07-30T09:42:46.080Z,100998.80
2018-07-30T09:45:15.169Z,100995.67
2018-07-30T09:47:44.310Z,100997.02
2018-07-30T09:50:13.392Z,100989.77
2018-07-30T09:52:42.497Z,100994.48
2018-07-30T09:55:11.587Z,100989.59
2018-07-30T09:57:40.679Z,100988.89
2018-07-30T10:00:10.380Z,100985.69
2018-07-30T10:02:39.496Z,100991.34
2018-07-30T10:05:08.593Z,100988.11
2018-07-30T10:07:37.733Z,100986.45
2018-07-30T10:10:06.840Z,100985.31
2018-07-30T10:12:36.224Z,100980.04
2018-07-30T10:15:05.647Z,100980.04
2018-07-30T10:17:34.850Z,100975.09
2018-07-30T10:20:03.997Z,100971.09
2018-07-30T10:22:33.108Z,100959.81
2018-07-30T10:25:02.206Z,100953.86
2018-07-30T10:27:31.333Z,100956.16
2018-07-30T10:30:00.501Z,100956.66
2018-07-30T10:32:29.584Z,100960.01
2018-07-30T10:34:58.744Z,100964.48
2018-07-30T10:37:27.853Z,100950.20
2018-07-30T10:39:57.726Z,100956.47
2018-07-30T10:42:27.088Z,100949.50
2018-07-30T10:44:56.251Z,100952.44
2018-07-30T10:47:25.318Z,100949.61
2018-07-30T10:49:54.476Z,100948.38
2018-07-30T10:52:23.561Z,100950.05
2018-07-30T10:54:52.708Z,100947.53
2018-07-30T10:57:21.819Z,100946.49
2018-07-30T10:59:50.984Z,100943.42
2018-07-30T11:02:21.476Z,100934.92
2018-07-30T11:04:50.585Z,100937.31
2018-07-30T11:07:19.702Z,100939.67
2018-07-30T11:09:48.953Z,100936.72
2018-07-30T11:12:18.040Z,100933.77
2018-07-30T11:14:47.165Z,100939.05
2018-07-30T11:17:16.321Z,100935.77
2018-07-30T11:19:45.452Z,100931.62
2018-07-30T11:22:14.592Z,100932.57
2018-07-30T11:24:43.753Z,100934.53
2018-07-30T11:27:13.629Z,100928.66
2018-07-30T11:29:42.799Z,100925.00
2018-07-30T11:32:12.983Z,100926.62
2018-07-30T11:34:42.709Z,100925.47
2018-07-30T11:37:11.829Z,100928.47
2018-07-30T11:39:40.949Z,100929.38
2018-07-30T11:42:10.236Z,100920.73
2018-07-30T11:44:39.969Z,100914.38
2018-07-30T11:47:09.213Z,100915.63
2018-07-30T11:49:38.620Z,100911.05
2018-07-30T11:52:08.108Z,100911.87
2018-07-30T11:54:37.219Z,100909.19
2018-07-30T11:57:06.329Z,100910.09
2018-07-30T11:59:35.412Z,100902.34
2018-07-30T12:02:04.520Z,100901.25
2018-07-30T12:04:33.596Z,100898.23
2018-07-30T12:07:07.241Z,100901.63
2018-07-30T12:09:37.033Z,100897.42
2018-07-30T12:12:06.137Z,100903.67
2018-07-30T12:14:36.144Z,100893.78
2018-07-30T12:17:05.412Z,100890.47
2018-07-30T12:19:34.508Z,100890.59
2018-07-30T12:22:03.724Z,100891.50
2018-07-30T12:24:32.818Z,100897.52
2018-07-30T12:27:02.180Z,100893.47
2018-07-30T12:29:32.073Z,100894.25
2018-07-30T12:32:01.211Z,100890.79
2018-07-30T12:34:30.398Z,100883.09
2018-07-30T12:36:59.520Z,100885.04
2018-07-30T12:39:28.934Z,100885.43
2018-07-30T12:41:58.099Z,100873.06
2018-07-30T12:44:27.192Z,100879.43
2018-07-30T12:46:56.309Z,100882.53
2018-07-30T12:49:25.411Z,100888.16
2018-07-30T12:51:54.568Z,100884.99
2018-07-30T12:54:24.045Z,100883.00
2018-07-30T12:56:53.261Z,100877.20
2018-07-30T12:59:22.319Z,100873.55
2018-07-30T13:01:51.464Z,100876.62
2018-07-30T13:04:20.602Z,100872.14
2018-07-30T13:06:49.704Z,100867.96
2018-07-30T13:09:18.872Z,100867.41
2018-07-30T13:11:47.976Z,100868.97
2018-07-30T13:14:17.093Z,100864.06
2018-07-30T13:16:46.189Z,100867.30
2018-07-30T13:19:15.304Z,100857.51
2018-07-30T13:21:44.392Z,100860.42
2018-07-30T13:24:13.502Z,100858.33
2018-07-30T13:26:42.671Z,100849.70
2018-07-30T13:29:12.440Z,100845.22
2018-07-30T13:31:41.569Z,100839.22
2018-07-30T13:34:10.698Z,100841.83
2018-07-30T13:36:39.781Z,100841.89
2018-07-30T13:39:09.840Z,100845.19
2018-07-30T13:41:39.419Z,100842.78
2018-07-30T13:44:08.529Z,100845.72
2018-07-30T13:46:37.896Z,100841.59
2018-07-30T13:49:11.953Z,100838.17
2018-07-30T13:51:41.157Z,100836.95
2018-07-30T13:54:10.279Z,100838.70
2018-07-30T13:56:39.356Z,100839.21
2018-07-30T13:59:08.461Z,100836.00
2018-07-30T14:01:37.548Z,100844.00
2018-07-30T14:04:06.665Z,100838.08
2018-07-30T14:06:35.861Z,100838.28
2018-07-30T14:09:08.265Z,100842.62
2018-07-30T14:11:37.357Z,100838.09
2018-07-30T14:14:06.814Z,100840.50
2018-07-30T14:16:35.951Z,100835.91
2018-07-30T14:19:05.061Z,100832.27
2018-07-30T14:21:34.373Z,100827.25
2018-07-30T14:24:03.484Z,100830.83
2018-07-30T14:26:32.869Z,100830.97
2018-07-30T14:29:01.986Z,100835.69
2018-07-30T14:31:31.136Z,100836.64
2018-07-30T14:34:00.350Z,100833.14
2018-07-30T14:36:29.457Z,100833.75
2018-07-30T14:38:58.554Z,100829.52
2018-07-30T14:41:27.670Z,100835.61
2018-07-30T14:43:56.764Z,100837.78
2018-07-30T14:46:25.868Z,100827.42
2018-07-30T14:48:54.976Z,100831.55
2018-07-30T14:51:24.944Z,100825.60
2018-07-30T14:53:54.017Z,100829.36
2018-07-30T14:56:23.491Z,100823.02
2018-07-30T14:58:52.708Z,100829.20
2018-07-30T15:01:21.824Z,100824.76
2018-07-30T15:03:50.928Z,100818.53
2018-07-30T15:06:20.118Z,100828.09
2018-07-30T15:08:49.250Z,100822.19
2018-07-30T15:11:18.400Z,100821.17
2018-07-30T15:13:47.509Z,100818.16
2018-07-30T15:16:16.673Z,100813.03
2018-07-30T15:18:45.756Z,100820.70
2018-07-30T15:21:14.873Z,100805.67
2018-07-30T15:23:43.962Z,100802.93
2018-07-30T15:26:13.097Z,100803.67
2018-07-30T15:28:42.257Z,100801.49
2018-07-30T15:31:11.392Z,100800.52
2018-07-30T15:33:40.464Z,100796.45
2018-07-30T15:36:09.543Z,100797.23
2018-07-30T15:38:38.634Z,100798.48
2018-07-30T15:41:07.781Z,100794.03
2018-07-30T15:43:36.883Z,100792.76
2018-07-30T15:46:06.025Z,100791.67
2018-07-30T15:48:35.255Z,100791.75
2018-07-30T15:51:04.420Z,100797.25
2018-07-30T15:53:33.644Z,100796.52
2018-07-30T15:56:02.880Z,100792.21
2018-07-30T15:58:32.006Z,100793.64
2018-07-30T16:01:01.111Z,100789.56
2018-07-30T16:03:30.231Z,100791.84
2018-07-30T16:05:59.320Z,100791.70
2018-07-30T16:08:34.928Z,100784.74
2018-07-30T16:11:04.028Z,100791.88
2018-07-30T16:13:33.170Z,100789.77
2018-07-30T16:16:02.244Z,100790.74
2018-07-30T16:18:31.449Z,100782.98
2018-07-30T16:21:00.528Z,100785.46
2018-07-30T16:23:29.702Z,100787.59
2018-07-30T16:25:59.220Z,100789.35
2018-07-30T16:28:28.339Z,100785.63
2018-07-30T16:30:57.553Z,100781.41
2018-07-30T16:33:26.735Z,100790.58
2018-07-30T16:35:59.433Z,100786.78
2018-07-30T16:38:29.491Z,100781.50
2018-07-30T16:40:58.612Z,100784.62
2018-07-30T16:43:27.726Z,100786.95
2018-07-30T16:45:57.118Z,100785.91
2018-07-30T16:48:27.185Z,100786.28
2018-07-30T16:50:57.018Z,100782.34
2018-07-30T16:53:26.826Z,100779.33
2018-07-30T16:55:56.809Z,100780.41
2018-07-30T16:58:27.112Z,100780.67
2018-07-30T17:00:58.105Z,100781.66
2018-07-30T17:03:28.395Z,100773.78
2018-07-30T17:05:58.637Z,100777.52
2018-07-30T17:08:27.821Z,100768.67
2018-07-30T17:10:56.995Z,100775.45
2018-07-30T17:13:26.096Z,100777.75
2018-07-30T17:15:55.184Z,100778.05
2018-07-30T17:18:24.288Z,100783.97
2018-07-30T17:20:53.416Z,100783.02
2018-07-30T17:23:22.488Z,100782.38
2018-07-30T17:25:51.696Z,100785.45
2018-07-30T17:28:20.853Z,100778.88
2018-07-30T17:30:49.996Z,100783.39
2018-07-30T17:33:19.060Z,100785.09
2018-07-30T17:35:48.179Z,100778.04
2018-07-30T17:38:17.256Z,100781.43
2018-07-30T17:40:46.366Z,100784.31
2018-07-30T17:43:15.527Z,100787.63
2018-07-30T17:45:44.662Z,100790.72
2018-07-30T17:48:13.891Z,100779.45
2018-07-30T17:50:43.069Z,100791.73
2018-07-30T17:53:12.201Z,100792.87
2018-07-30T17:55:41.225Z,100797.83
2018-07-30T17:58:10.322Z,100794.66
2018-07-30T18:00:39.421Z,100790.73
2018-07-30T18:03:08.569Z,100805.12
2018-07-30T18:05:37.644Z,100793.00
2018-07-30T18:08:07.103Z,100799.74
2018-07-30T18:10:36.192Z,100796.07
2018-07-30T18:13:05.336Z,100799.80
2018-07-30T18:15:34.424Z,100798.70
2018-07-30T18:18:03.537Z,100802.13
2018-07-30T18:20:32.668Z,100800.47
2018-07-30T18:23:01.772Z,100803.23
2018-07-30T18:25:30.867Z,100807.82
2018-07-30T18:27:59.998Z,100802.73
2018-07-30T18:30:29.159Z,100803.95
2018-07-30T18:32:58.372Z,100805.28
2018-07-30T18:35:27.905Z,100803.05
2018-07-30T18:37:57.020Z,100808.08
2018-07-30T18:40:26.184Z,100809.40
2018-07-30T18:42:55.334Z,100808.17
2018-07-30T18:45:24.400Z,100805.69
2018-07-30T18:47:53.496Z,100806.66
2018-07-30T18:50:22.584Z,100810.75
2018-07-30T18:52:52.021Z,100810.05
2018-07-30T18:55:21.109Z,100813.84
2018-07-30T18:57:50.686Z,100820.59
2018-07-30T19:00:19.880Z,100814.57
2018-07-30T19:02:49.076Z,100823.02
2018-07-30T19:05:18.162Z,100828.80
2018-07-30T19:07:47.321Z,100828.34
2018-07-30T19:10:20.508Z,100825.97
2018-07-30T19:12:50.018Z,100830.40
2018-07-30T19:15:19.088Z,100836.27
2018-07-30T19:17:48.208Z,100836.94
2018-07-30T19:20:17.308Z,100842.88
2018-07-30T19:22:46.397Z,100843.72
2018-07-30T19:25:15.492Z,100843.72
2018-07-30T19:27:44.572Z,100840.88
2018-07-30T19:30:13.760Z,100837.02
2018-07-30T19:32:42.839Z,100839.21
2018-07-30T19:35:11.940Z,100832.80
2018-07-30T19:37:41.126Z,100838.35
2018-07-30T19:40:10.231Z,100838.22
2018-07-30T19:42:39.304Z,100839.91
2018-07-30T19:45:08.500Z,100845.19
2018-07-30T19:47:37.577Z,100838.20
2018-07-30T19:50:06.727Z,100843.84
2018-07-30T19:52:36.480Z,100842.72
2018-07-30T19:55:06.160Z,100843.73
2018-07-30T19:57:35.271Z,100842.98
2018-07-30T20:00:06.013Z,100848.33
2018-07-30T20:02:35.188Z,100843.08
2018-07-30T20:05:04.809Z,100843.70
2018-07-30T20:07:33.929Z,100850.41
2018-07-30T20:10:08.199Z,100845.76
2018-07-30T20:12:37.269Z,100851.17
2018-07-30T20:15:07.112Z,100844.41
2018-07-30T20:17:36.216Z,100850.20
2018-07-30T20:20:07.356Z,100845.67
2018-07-30T20:22:36.428Z,100841.92
2018-07-30T20:25:06.037Z,100844.73
2018-07-30T20:27:35.127Z,100845.82
2018-07-30T20:30:04.950Z,100848.17
2018-07-30T20:32:34.020Z,100846.91
2018-07-30T20:35:03.612Z,100846.79
2018-07-30T20:37:32.696Z,100845.14
2018-07-30T20:40:01.852Z,100855.44
2018-07-30T20:42:31.000Z,100852.75
2018-07-30T20:45:00.160Z,100858.43
2018-07-30T20:47:29.657Z,100859.94
2018-07-30T20:49:58.764Z,100857.04
2018-07-30T20:52:27.931Z,100857.75
2018-07-30T20:54:57.052Z,100856.67
2018-07-30T20:57:26.200Z,100853.36
2018-07-30T20:59:55.272Z,100853.27
2018-07-30T21:02:24.385Z,100854.36
2018-07-30T21:04:53.449Z,100857.37
2018-07-30T21:07:22.713Z,100859.84
2018-07-30T21:09:51.820Z,100866.53
2018-07-30T21:12:20.943Z,100864.83
2018-07-30T21:14:50.032Z,100864.23
2018-07-30T21:17:19.170Z,100868.53
2018-07-30T21:19:48.227Z,100866.56
2018-07-30T21:22:17.356Z,100865.04
2018-07-30T21:24:46.425Z,100863.20
2018-07-30T21:27:15.541Z,100867.42
2018-07-30T21:29:44.613Z,100874.14
2018-07-30T21:32:13.736Z,100876.59
2018-07-30T21:34:42.817Z,100871.91
2018-07-30T21:37:11.976Z,100871.23
2018-07-30T21:39:41.052Z,100872.48
2018-07-30T21:42:10.152Z,100866.39
2018-07-30T21:44:39.247Z,100875.38
2018-07-30T21:47:08.340Z,100874.59
2018-07-30T21:49:37.461Z,100882.67
2018-07-30T21:52:06.555Z,100875.90
2018-07-30T21:54:35.665Z,100877.37
2018-07-30T21:57:04.862Z,100875.38
2018-07-30T21:59:33.956Z,100877.89
2018-07-30T22:02:03.068Z,100875.51
2018-07-30T22:04:32.143Z,100873.74
2018-07-30T22:07:01.244Z,100874.88
2018-07-30T22:09:30.364Z,100874.51
2018-07-30T22:11:59.484Z,100873.72
2018-07-30T22:14:28.564Z,100874.63
2018-07-30T22:16:57.660Z,100874.41
2018-07-30T22:19:26.760Z,100868.23
2018-07-30T22:21:55.844Z,100870.73
2018-07-30T22:24:24.940Z,100870.42
2018-07-30T22:26:54.032Z,100874.69
2018-07-30T22:29:23.120Z,100864.58
2018-07-30T22:31:52.231Z,100865.09
2018-07-30T22:34:21.328Z,100862.08
2018-07-30T22:36:50.419Z,100863.23
2018-07-30T22:39:19.537Z,100862.02
2018-07-30T22:41:48.608Z,100867.86
2018-07-30T22:44:17.708Z,100863.56
2018-07-30T22:46:46.799Z,100867.65
2018-07-30T22:49:15.921Z,100859.82
2018-07-30T22:51:44.987Z,100865.45
2018-07-30T22:54:14.104Z,100858.66
2018-07-30T22:56:43.184Z,100857.11
2018-07-30T22:59:12.285Z,100860.19
2018-07-30T23:01:41.363Z,100854.68
2018-07-30T23:04:10.480Z,100848.53
2018-07-30T23:06:39.650Z,100852.96
2018-07-30T23:09:08.743Z,100843.81
2018-07-30T23:11:37.808Z,100844.47
2018-07-30T23:14:06.948Z,100849.30
2018-07-30T23:16:36.035Z,100843.95
2018-07-30T23:19:05.128Z,100841.71
2018-07-30T23:21:34.236Z,100848.52
2018-07-30T23:24:03.321Z,100845.64
2018-07-30T23:26:32.424Z,100845.44
2018-07-30T23:29:01.504Z,100840.50
2018-07-30T23:31:30.848Z,100838.19
2018-07-30T23:33:59.912Z,100836.83
2018-07-30T23:36:29.012Z,100835.77
2018-07-30T23:38:58.071Z,100829.94
2018-07-30T23:41:27.188Z,100831.05
2018-07-30T23:43:56.252Z,100829.75
2018-07-30T23:46:25.644Z,100829.39
2018-07-30T23:48:54.716Z,100827.42
2018-07-30T23:51:23.817Z,100826.77
2018-07-30T23:53:52.955Z,100821.69
2018-07-30T23:56:21.980Z,100818.50
2018-07-30T23:58:51.043Z,100816.53
